McChord AFB, Washington
Current Conditions -  °F | °C
As of 5:48 AM on Saturday 25 Oct 2014 (Local Time) from KGRF Reporting Station
Drizzle Drizzle  
Wind Chill: 46°   Ceiling: 100
Heat Index: 46°   Visibility: 0mi
Dew Point: 46°   Wind: 3mph
Humidity: 100%   Direction: 170°S
Pressure: 29.49"   Gusts: NA
Location:  47.1264°N, 122.555°W
Report Text: KGRF 251248Z AUTO 17003KT M1/4SM R15/0500FT DZ FG VV001 08/08 A2949 RMK AO2
Loading
Personal Weather Stations






























Interactive Weather Map
Tropical Storm Tracking
New forecast layout! Learn more

10-Day Weather Forecast

Advertisements
Track Severe Weather on mobile